createdAt,value
2018-08-03T00:01:08.856Z,100013.63
2018-08-03T00:03:37.812Z,100007.86
2018-08-03T00:06:06.784Z,100015.75
2018-08-03T00:08:35.760Z,100016.25
2018-08-03T00:11:04.788Z,100008.36
2018-08-03T00:13:33.739Z,100004.80
2018-08-03T00:16:02.707Z,100012.15
2018-08-03T00:18:31.713Z,100017.61
2018-08-03T00:21:15.403Z,100011.55
2018-08-03T00:23:44.380Z,100016.11
2018-08-03T00:26:13.359Z,100014.93
2018-08-03T00:28:42.312Z,100019.48
2018-08-03T00:31:11.345Z,100010.58
2018-08-03T00:33:40.297Z,100012.41
2018-08-03T00:36:09.320Z,100012.10
2018-08-03T00:38:38.321Z,100012.82
2018-08-03T00:41:07.412Z,100010.85
2018-08-03T00:43:36.477Z,100009.64
2018-08-03T00:46:05.488Z,100008.50
2018-08-03T00:48:34.448Z,100007.03
2018-08-03T00:51:03.399Z,100015.66
2018-08-03T00:53:32.375Z,100012.36
2018-08-03T00:56:01.437Z,100006.61
2018-08-03T00:58:30.469Z,100005.23
2018-08-03T01:00:59.424Z,99999.48
2018-08-03T01:03:28.433Z,99997.94
2018-08-03T01:05:57.392Z,100001.16
2018-08-03T01:08:27.269Z,100000.55
2018-08-03T01:10:56.217Z,99997.81
2018-08-03T01:13:25.176Z,99996.30
2018-08-03T01:15:54.143Z,99997.24
2018-08-03T01:18:23.131Z,99995.13
2018-08-03T01:20:52.092Z,99993.91
2018-08-03T01:23:21.128Z,99989.52
2018-08-03T01:25:50.158Z,99993.30
2018-08-03T01:28:19.265Z,99992.73
2018-08-03T01:30:48.270Z,99988.86
2018-08-03T01:33:17.303Z,99988.03
2018-08-03T01:35:46.271Z,99985.83
2018-08-03T01:38:15.289Z,99979.55
2018-08-03T01:40:44.373Z,99981.05
2018-08-03T01:43:13.396Z,99976.97
2018-08-03T01:45:42.363Z,99971.47
2018-08-03T01:48:11.372Z,99969.27
2018-08-03T01:50:40.385Z,99966.85
2018-08-03T01:53:09.356Z,99971.77
2018-08-03T01:55:38.352Z,99975.91
2018-08-03T01:58:07.416Z,99962.77
2018-08-03T02:00:36.363Z,99968.79
2018-08-03T02:03:05.322Z,99962.77
2018-08-03T02:05:34.320Z,99970.94
2018-08-03T02:08:03.461Z,99968.22
2018-08-03T02:10:32.512Z,99961.09
2018-08-03T02:13:01.473Z,99964.35
2018-08-03T02:15:30.554Z,99974.95
2018-08-03T02:17:59.620Z,99967.30
2018-08-03T02:20:28.694Z,99970.25
2018-08-03T02:22:57.657Z,99971.54
2018-08-03T02:25:26.639Z,99975.58
2018-08-03T02:27:55.649Z,99975.80
2018-08-03T02:30:24.733Z,99979.52
2018-08-03T02:32:53.741Z,99983.25
2018-08-03T02:35:22.776Z,99988.39
2018-08-03T02:37:51.824Z,99988.70
2018-08-03T02:40:20.910Z,99991.04
2018-08-03T02:42:49.909Z,99986.34
2018-08-03T02:45:18.868Z,99993.98
2018-08-03T02:47:47.796Z,99991.34
2018-08-03T02:50:16.808Z,99998.99
2018-08-03T02:52:45.760Z,99995.52
2018-08-03T02:55:14.821Z,100003.43
2018-08-03T02:57:43.881Z,100008.21
2018-08-03T03:00:12.879Z,99992.47
2018-08-03T03:02:41.843Z,100005.92
2018-08-03T03:05:10.918Z,100005.47
2018-08-03T03:07:39.889Z,100002.44
2018-08-03T03:10:08.851Z,100013.87
2018-08-03T03:12:37.931Z,100009.23
2018-08-03T03:15:07.280Z,100000.92
2018-08-03T03:17:36.392Z,100016.98
2018-08-03T03:20:05.411Z,100010.77
2018-08-03T03:22:34.385Z,100007.27
2018-08-03T03:25:03.386Z,100016.43
2018-08-03T03:27:32.336Z,100011.94
2018-08-03T03:30:01.364Z,100011.33
2018-08-03T03:32:30.418Z,100014.20
2018-08-03T03:34:59.464Z,100012.09
2018-08-03T03:37:28.480Z,100014.81
2018-08-03T03:39:57.518Z,100013.72
2018-08-03T03:42:26.514Z,100012.36
2018-08-03T03:44:55.578Z,100009.15
2018-08-03T03:47:24.581Z,100009.64
2018-08-03T03:49:53.773Z,100006.87
2018-08-03T03:52:22.728Z,100014.78
2018-08-03T03:54:51.691Z,100015.80
2018-08-03T03:57:20.708Z,100010.36
2018-08-03T03:59:49.808Z,100011.14
2018-08-03T04:02:18.881Z,100008.66
2018-08-03T04:04:47.899Z,100013.32
2018-08-03T04:07:16.852Z,100014.09
2018-08-03T04:09:45.844Z,100019.11
2018-08-03T04:12:14.901Z,100019.94
2018-08-03T04:14:43.913Z,100016.45
2018-08-03T04:17:12.900Z,100018.99
2018-08-03T04:19:41.917Z,100021.58
2018-08-03T04:22:10.883Z,100018.99
2018-08-03T04:24:39.904Z,100022.38
2018-08-03T04:27:08.951Z,100023.77
2018-08-03T04:29:38.050Z,100020.20
2018-08-03T04:32:07.145Z,100031.50
2018-08-03T04:34:36.130Z,100022.14
2018-08-03T04:37:05.172Z,100020.05
2018-08-03T04:39:34.204Z,100033.66
2018-08-03T04:42:04.069Z,100032.85
2018-08-03T04:44:33.249Z,100033.69
2018-08-03T04:47:02.247Z,100036.17
2018-08-03T04:49:31.228Z,100038.80
2018-08-03T04:52:00.516Z,100037.47
2018-08-03T04:54:29.545Z,100050.22
2018-08-03T04:56:58.613Z,100046.35
2018-08-03T04:59:27.842Z,100052.23
2018-08-03T05:01:56.836Z,100053.71
2018-08-03T05:04:25.854Z,100060.02
2018-08-03T05:06:54.884Z,100054.11
2018-08-03T05:09:23.946Z,100061.56
2018-08-03T05:11:53.032Z,100061.11
2018-08-03T05:14:22.095Z,100057.08
2018-08-03T05:16:51.122Z,100063.94
2018-08-03T05:19:20.087Z,100066.19
2018-08-03T05:21:49.109Z,100066.19
2018-08-03T05:24:18.198Z,100065.64
2018-08-03T05:26:47.172Z,100078.59
2018-08-03T05:29:16.183Z,100073.70
2018-08-03T05:31:45.172Z,100077.21
2018-08-03T05:34:14.196Z,100075.40
2018-08-03T05:36:43.168Z,100079.78
2018-08-03T05:39:12.484Z,100076.14
2018-08-03T05:41:41.569Z,100088.25
2018-08-03T05:44:10.596Z,100084.25
2018-08-03T05:46:39.690Z,100084.94
2018-08-03T05:49:08.727Z,100082.34
2018-08-03T05:51:37.761Z,100081.20
2018-08-03T05:54:06.874Z,100081.81
2018-08-03T05:56:35.920Z,100080.80
2018-08-03T05:59:04.875Z,100081.00
2018-08-03T06:01:33.958Z,100070.55
2018-08-03T06:04:03.061Z,100083.11
2018-08-03T06:06:32.133Z,100074.39
2018-08-03T06:09:01.157Z,100077.27
2018-08-03T06:11:30.201Z,100086.55
2018-08-03T06:13:59.180Z,100078.53
2018-08-03T06:16:28.176Z,100076.41
2018-08-03T06:18:57.252Z,100083.85
2018-08-03T06:21:26.235Z,100079.35
2018-08-03T06:23:55.324Z,100081.55
2018-08-03T06:26:24.352Z,100077.65
2018-08-03T06:28:53.856Z,100081.73
2018-08-03T06:31:22.948Z,100082.14
2018-08-03T06:33:51.947Z,100072.77
2018-08-03T06:36:20.932Z,100080.12
2018-08-03T06:38:49.991Z,100077.45
2018-08-03T06:41:18.967Z,100075.65
2018-08-03T06:43:47.940Z,100088.56
2018-08-03T06:46:16.952Z,100081.73
2018-08-03T06:48:46.011Z,100082.31
2018-08-03T06:51:14.995Z,100076.48
2018-08-03T06:53:44.000Z,100076.94
2018-08-03T06:56:12.993Z,100075.13
2018-08-03T06:58:41.991Z,100075.07
2018-08-03T07:01:11.070Z,100078.20
2018-08-03T07:03:40.127Z,100070.56
2018-08-03T07:06:09.156Z,100068.14
2018-08-03T07:08:38.129Z,100074.28
2018-08-03T07:11:07.433Z,100081.40
2018-08-03T07:13:36.420Z,100079.98
2018-08-03T07:16:05.449Z,100081.97
2018-08-03T07:18:34.480Z,100083.44
2018-08-03T07:21:03.582Z,100084.11
2018-08-03T07:23:32.635Z,100086.70
2018-08-03T07:26:01.686Z,100084.67
2018-08-03T07:28:30.813Z,100086.08
2018-08-03T07:30:59.845Z,100083.11
2018-08-03T07:33:28.847Z,100081.70
2018-08-03T07:35:57.913Z,100077.56
2018-08-03T07:38:26.891Z,100077.44
2018-08-03T07:40:55.988Z,100079.56
2018-08-03T07:43:25.092Z,100078.09
2018-08-03T07:45:54.158Z,100079.80
2018-08-03T07:48:23.157Z,100075.30
2018-08-03T07:50:52.208Z,100075.08
2018-08-03T07:53:21.203Z,100072.08
2018-08-03T07:55:50.176Z,100076.46
2018-08-03T07:58:19.164Z,100069.98
2018-08-03T08:00:48.127Z,100074.66
2018-08-03T08:03:17.158Z,100081.94
2018-08-03T08:05:46.300Z,100071.42
2018-08-03T08:08:15.361Z,100070.43
2018-08-03T08:10:44.405Z,100074.63
2018-08-03T08:13:13.447Z,100074.00
2018-08-03T08:15:42.486Z,100064.04
2018-08-03T08:18:11.552Z,100063.82
2018-08-03T08:20:40.529Z,100064.39
2018-08-03T08:23:09.585Z,100064.88
2018-08-03T08:25:38.570Z,100060.22
2018-08-03T08:28:07.745Z,100057.44
2018-08-03T08:30:36.774Z,100054.14
2018-08-03T08:33:05.882Z,100044.50
2018-08-03T08:35:34.925Z,100037.17
2018-08-03T08:38:03.964Z,100038.13
2018-08-03T08:40:33.012Z,100039.77
2018-08-03T08:43:02.048Z,100039.25
2018-08-03T08:45:31.046Z,100039.09
2018-08-03T08:48:00.157Z,100032.56
2018-08-03T08:50:29.152Z,100034.67
2018-08-03T08:52:58.574Z,100027.92
2018-08-03T08:55:27.666Z,100030.33
2018-08-03T08:57:56.717Z,100037.63
2018-08-03T09:00:25.783Z,100037.71
2018-08-03T09:02:54.832Z,100044.42
2018-08-03T09:05:23.880Z,100039.98
2018-08-03T09:07:52.981Z,100037.66
2018-08-03T09:10:22.085Z,100040.37
2018-08-03T09:12:51.111Z,100032.42
2018-08-03T09:15:20.093Z,100030.61
2018-08-03T09:17:49.565Z,100033.80
2018-08-03T09:20:18.544Z,100029.97
2018-08-03T09:22:47.581Z,100024.80
2018-08-03T09:25:16.668Z,100024.88
2018-08-03T09:27:45.712Z,100025.75
2018-08-03T09:30:14.724Z,100030.53
2018-08-03T09:32:43.702Z,100018.45
2018-08-03T09:35:12.732Z,100022.88
2018-08-03T09:37:41.778Z,100017.22
2018-08-03T09:40:10.842Z,100010.94
2018-08-03T09:42:39.868Z,100018.22
2018-08-03T09:45:08.856Z,100022.78
2018-08-03T09:47:37.880Z,100014.23
2018-08-03T09:50:06.868Z,100010.34
2018-08-03T09:52:35.897Z,100006.09
2018-08-03T09:55:05.048Z,100012.33
2018-08-03T09:57:34.020Z,100011.45
2018-08-03T10:00:03.029Z,100022.16
2018-08-03T10:02:32.117Z,100018.77
2018-08-03T10:05:01.218Z,100015.66
2018-08-03T10:07:30.317Z,100015.09
2018-08-03T10:09:59.305Z,100005.48
2018-08-03T10:12:28.322Z,100006.20
2018-08-03T10:14:57.438Z,100000.05
2018-08-03T10:17:26.474Z,100002.83
2018-08-03T10:19:55.502Z,99996.06
2018-08-03T10:22:24.575Z,99990.40
2018-08-03T10:24:54.049Z,99989.86
2018-08-03T10:27:23.008Z,99986.92
2018-08-03T10:29:52.010Z,99987.81
2018-08-03T10:32:21.093Z,99980.20
2018-08-03T10:34:50.209Z,99979.48
2018-08-03T10:37:19.177Z,99973.48
2018-08-03T10:39:48.220Z,99971.47
2018-08-03T10:42:17.257Z,99977.48
2018-08-03T10:44:46.207Z,99979.38
2018-08-03T10:47:15.333Z,99972.52
2018-08-03T10:49:44.275Z,99970.95
2018-08-03T10:52:13.245Z,99968.24
2018-08-03T10:54:42.288Z,99964.17
2018-08-03T10:57:11.281Z,99962.37
2018-08-03T10:59:40.571Z,99966.66
2018-08-03T11:02:09.745Z,99959.57
2018-08-03T11:04:39.237Z,99964.36
2018-08-03T11:07:08.281Z,99963.70
2018-08-03T11:09:37.314Z,99964.36
2018-08-03T11:12:06.488Z,99963.95
2018-08-03T11:14:35.465Z,99963.50
2018-08-03T11:17:04.444Z,99964.52
2018-08-03T11:19:33.611Z,99958.45
2018-08-03T11:22:02.596Z,99956.06
2018-08-03T11:24:31.658Z,99956.86
2018-08-03T11:27:00.668Z,99946.58
2018-08-03T11:29:29.621Z,99939.61
2018-08-03T11:31:58.620Z,99946.97
2018-08-03T11:34:27.581Z,99947.70
2018-08-03T11:36:56.578Z,99946.47
2018-08-03T11:39:25.536Z,99942.73
2018-08-03T11:41:54.626Z,99932.74
2018-08-03T11:44:23.661Z,99940.72
2018-08-03T11:46:52.708Z,99943.32
2018-08-03T11:49:21.684Z,99944.08
2018-08-03T11:51:50.703Z,99931.18
2018-08-03T11:54:20.658Z,99933.98
2018-08-03T11:56:49.672Z,99934.14
2018-08-03T11:59:18.639Z,99928.31
2018-08-03T12:01:47.716Z,99923.97
2018-08-03T12:04:16.835Z,99920.59
2018-08-03T12:06:45.908Z,99915.28
2018-08-03T12:09:14.907Z,99906.94
2018-08-03T12:11:43.880Z,99911.13
2018-08-03T12:14:12.914Z,99910.35
2018-08-03T12:16:41.938Z,99912.72
2018-08-03T12:19:10.959Z,99909.55
2018-08-03T12:21:39.988Z,99902.06
2018-08-03T12:24:09.032Z,99901.96
2018-08-03T12:26:38.119Z,99896.94
2018-08-03T12:29:07.068Z,99899.13
2018-08-03T12:31:36.134Z,99898.62
2018-08-03T12:34:05.242Z,99894.34
2018-08-03T12:36:34.297Z,99896.38
2018-08-03T12:39:03.408Z,99891.50
2018-08-03T12:41:32.429Z,99892.32
2018-08-03T12:44:01.465Z,99893.55
2018-08-03T12:46:30.493Z,99888.48
2018-08-03T12:48:59.529Z,99892.98
2018-08-03T12:51:28.514Z,99892.80
2018-08-03T12:53:57.528Z,99891.23
2018-08-03T12:56:26.592Z,99887.23
2018-08-03T12:58:55.620Z,99890.80
2018-08-03T13:01:24.673Z,99890.92
2018-08-03T13:03:53.693Z,99886.13
2018-08-03T13:06:22.765Z,99886.09
2018-08-03T13:08:51.806Z,99889.11
2018-08-03T13:11:20.809Z,99893.11
2018-08-03T13:13:49.944Z,99888.46
2018-08-03T13:16:19.028Z,99883.88
2018-08-03T13:18:48.059Z,99888.66
2018-08-03T13:21:27.968Z,99878.83
2018-08-03T13:24:01.169Z,99877.41
2018-08-03T13:26:30.168Z,99874.88
2018-08-03T13:28:59.597Z,99869.91
2018-08-03T13:31:29.735Z,99865.63
2018-08-03T13:33:58.789Z,99867.59
2018-08-03T13:36:29.152Z,99869.00
2018-08-03T13:38:58.126Z,99870.61
2018-08-03T13:41:27.157Z,99861.67
2018-08-03T13:43:56.230Z,99859.16
2018-08-03T13:46:25.208Z,99858.34
2018-08-03T13:48:54.159Z,99857.42
2018-08-03T13:51:23.177Z,99860.11
2018-08-03T13:53:52.288Z,99857.52
2018-08-03T13:56:21.312Z,99856.30
2018-08-03T13:58:50.267Z,99856.59
2018-08-03T14:01:30.369Z,99857.00
2018-08-03T14:03:59.412Z,99852.16
2018-08-03T14:06:28.412Z,99855.23
2018-08-03T14:08:57.487Z,99857.20
2018-08-03T14:11:26.563Z,99855.83
2018-08-03T14:13:55.570Z,99848.23
2018-08-03T14:16:24.611Z,99844.22
2018-08-03T14:18:53.580Z,99843.78
2018-08-03T14:21:22.833Z,99845.89
2018-08-03T14:23:51.886Z,99847.28
2018-08-03T14:26:20.905Z,99832.91
2018-08-03T14:28:50.022Z,99847.63
2018-08-03T14:31:19.076Z,99849.43
2018-08-03T14:33:48.109Z,99843.34
2018-08-03T14:36:17.177Z,99845.89
2018-08-03T14:38:46.263Z,99847.89
2018-08-03T14:41:15.343Z,99842.39
2018-08-03T14:43:44.422Z,99845.70
2018-08-03T14:46:13.403Z,99838.25
2018-08-03T14:48:42.368Z,99841.20
2018-08-03T14:51:11.401Z,99843.28
2018-08-03T14:53:40.384Z,99840.99
2018-08-03T14:56:09.464Z,99837.04
2018-08-03T14:58:38.479Z,99835.98
2018-08-03T15:01:07.577Z,99835.34
2018-08-03T15:03:36.609Z,99834.09
2018-08-03T15:06:05.737Z,99826.20
2018-08-03T15:08:34.776Z,99826.24
2018-08-03T15:11:03.802Z,99831.89
2018-08-03T15:13:32.922Z,99826.25
2018-08-03T15:16:01.894Z,99831.56
2018-08-03T15:18:30.984Z,99829.86
2018-08-03T15:20:59.981Z,99822.98
2018-08-03T15:23:28.956Z,99822.05
2018-08-03T15:25:58.127Z,99816.80
2018-08-03T15:28:27.234Z,99817.63
2018-08-03T15:30:56.220Z,99821.70
2018-08-03T15:33:25.688Z,99824.12
2018-08-03T15:35:54.910Z,99820.30
2018-08-03T15:38:23.942Z,99820.10
2018-08-03T15:40:53.001Z,99827.69
2018-08-03T15:43:21.959Z,99798.02
2018-08-03T15:45:50.932Z,99818.19
2018-08-03T15:48:19.883Z,99816.12
2018-08-03T15:50:48.977Z,99808.77
2018-08-03T15:53:18.057Z,99813.84
2018-08-03T15:55:47.067Z,99810.27
2018-08-03T15:58:16.141Z,99820.27
2018-08-03T16:00:45.153Z,99816.77
2018-08-03T16:03:14.293Z,99815.44
2018-08-03T16:05:43.365Z,99814.70
2018-08-03T16:08:12.404Z,99817.48
2018-08-03T16:10:41.420Z,99813.70
2018-08-03T16:13:10.392Z,99818.27
2018-08-03T16:15:39.365Z,99817.19
2018-08-03T16:18:08.430Z,99820.83
2018-08-03T16:20:37.507Z,99819.53
2018-08-03T16:23:06.484Z,99819.91
2018-08-03T16:25:35.618Z,99822.99
2018-08-03T16:28:04.720Z,99823.08
2018-08-03T16:30:33.665Z,99820.66
2018-08-03T16:33:02.640Z,99820.78
2018-08-03T16:35:31.668Z,99820.86
2018-08-03T16:38:00.709Z,99820.09
2018-08-03T16:40:29.760Z,99831.20
2018-08-03T16:42:58.707Z,99818.09
2018-08-03T16:45:27.882Z,99819.03
2018-08-03T16:47:57.604Z,99824.11
2018-08-03T16:50:26.572Z,99833.28
2018-08-03T16:52:55.620Z,99831.45
2018-08-03T16:55:24.769Z,99837.09
2018-08-03T16:57:54.331Z,99840.73
2018-08-03T17:00:23.592Z,99842.44
2018-08-03T17:02:52.710Z,99844.48
2018-08-03T17:05:21.724Z,99840.41
2018-08-03T17:07:50.915Z,99843.79
2018-08-03T17:10:19.955Z,99847.66
2018-08-03T17:12:49.004Z,99848.30
2018-08-03T17:15:17.971Z,99845.60
2018-08-03T17:17:47.081Z,99847.58
2018-08-03T17:20:16.115Z,99845.98
2018-08-03T17:22:45.097Z,99845.20
2018-08-03T17:25:14.216Z,99851.58
2018-08-03T17:27:43.241Z,99854.34
2018-08-03T17:30:12.215Z,99854.09
2018-08-03T17:32:41.288Z,99860.45
2018-08-03T17:35:10.299Z,99852.73
2018-08-03T17:37:39.590Z,99859.10
2018-08-03T17:40:08.607Z,99864.36
2018-08-03T17:42:37.664Z,99866.02
2018-08-03T17:45:06.769Z,99864.39
2018-08-03T17:47:35.796Z,99867.12
2018-08-03T17:50:05.399Z,99868.75
2018-08-03T17:52:34.733Z,99867.67
2018-08-03T17:55:03.836Z,99868.22
2018-08-03T17:57:32.796Z,99872.59
2018-08-03T18:00:01.814Z,99875.61
2018-08-03T18:02:30.831Z,99883.25
2018-08-03T18:04:59.879Z,99881.59
2018-08-03T18:07:28.966Z,99884.56
2018-08-03T18:09:58.009Z,99884.00
2018-08-03T18:12:27.117Z,99880.63
2018-08-03T18:14:56.138Z,99897.08
2018-08-03T18:17:25.201Z,99897.59
2018-08-03T18:19:54.166Z,99897.50
2018-08-03T18:22:23.117Z,99898.24
2018-08-03T18:24:52.221Z,99903.95
2018-08-03T18:27:21.274Z,99909.42
2018-08-03T18:29:50.299Z,99912.09
2018-08-03T18:32:19.324Z,99919.69
2018-08-03T18:34:48.283Z,99924.89
2018-08-03T18:37:17.459Z,99928.98
2018-08-03T18:39:46.479Z,99926.97
2018-08-03T18:42:15.625Z,99923.30
2018-08-03T18:44:44.677Z,99918.07
2018-08-03T18:47:13.633Z,99925.95
2018-08-03T18:49:42.673Z,99934.13
2018-08-03T18:52:11.747Z,99935.70
2018-08-03T18:54:40.837Z,99938.38
2018-08-03T18:57:10.028Z,99936.11
2018-08-03T18:59:39.060Z,99937.36
2018-08-03T19:02:08.109Z,99934.25
2018-08-03T19:04:37.267Z,99930.81
2018-08-03T19:07:06.375Z,99928.28
2018-08-03T19:09:35.459Z,99930.64
2018-08-03T19:12:04.431Z,99933.30
2018-08-03T19:14:33.433Z,99933.01
2018-08-03T19:17:02.589Z,99929.88
2018-08-03T19:19:31.786Z,99937.31
2018-08-03T19:22:00.927Z,99940.55
2018-08-03T19:24:29.835Z,99938.56
2018-08-03T19:26:58.988Z,99940.70
2018-08-03T19:29:27.952Z,99940.33
2018-08-03T19:31:57.076Z,99940.56
2018-08-03T19:34:26.135Z,99945.16
2018-08-03T19:36:55.219Z,99946.97
2018-08-03T19:39:24.284Z,99942.27
2018-08-03T19:41:53.237Z,99943.30
2018-08-03T19:44:22.332Z,99945.70
2018-08-03T19:46:51.296Z,99942.61
2018-08-03T19:49:20.316Z,99950.25
2018-08-03T19:51:49.329Z,99941.92
2018-08-03T19:54:18.425Z,99952.63
2018-08-03T19:56:47.435Z,99956.98
2018-08-03T19:59:16.485Z,99954.09
2018-08-03T20:01:45.516Z,99961.94
2018-08-03T20:04:14.452Z,99961.94
2018-08-03T20:06:43.513Z,99965.46
2018-08-03T20:09:13.304Z,99967.30
2018-08-03T20:11:42.300Z,99966.09
2018-08-03T20:14:11.268Z,99965.75
2018-08-03T20:16:40.269Z,99965.11
2018-08-03T20:19:09.432Z,99968.06
2018-08-03T20:21:38.497Z,99969.33
2018-08-03T20:24:07.463Z,99968.95
2018-08-03T20:26:36.489Z,99966.44
2018-08-03T20:29:05.631Z,99971.56
2018-08-03T20:31:34.616Z,99967.91
2018-08-03T20:34:03.583Z,99966.73
2018-08-03T20:36:32.654Z,99965.48
2018-08-03T20:39:01.719Z,99967.58
2018-08-03T20:41:30.809Z,99964.75
2018-08-03T20:43:59.781Z,99965.77
2018-08-03T20:46:28.808Z,99972.55
2018-08-03T20:48:57.825Z,99968.95
2018-08-03T20:51:26.840Z,99971.92
2018-08-03T20:53:55.921Z,99969.61
2018-08-03T20:56:24.871Z,99968.23
2018-08-03T20:58:53.900Z,99971.24
2018-08-03T21:01:23.001Z,99969.70
2018-08-03T21:03:52.321Z,99978.10
2018-08-03T21:06:21.335Z,99979.34
2018-08-03T21:08:50.283Z,99975.75
2018-08-03T21:11:19.383Z,99975.25
2018-08-03T21:13:48.311Z,99974.11
2018-08-03T21:16:17.248Z,99975.48
2018-08-03T21:18:46.213Z,99980.14
2018-08-03T21:21:15.159Z,99982.81
2018-08-03T21:23:44.155Z,99984.86
2018-08-03T21:26:13.168Z,99985.95
2018-08-03T21:28:42.180Z,99995.78
2018-08-03T21:31:11.237Z,99992.48
2018-08-03T21:33:40.252Z,99989.48
2018-08-03T21:36:09.277Z,99992.98
2018-08-03T21:38:38.277Z,99997.09
2018-08-03T21:41:07.296Z,99994.95
2018-08-03T21:43:36.344Z,99990.05
2018-08-03T21:46:06.413Z,99986.79
2018-08-03T21:48:35.467Z,99988.66
2018-08-03T21:51:04.414Z,99991.09
2018-08-03T21:53:33.367Z,99991.63
2018-08-03T21:56:02.417Z,99998.16
2018-08-03T21:58:31.566Z,99999.05
2018-08-03T22:01:00.531Z,100004.55
2018-08-03T22:03:29.640Z,99997.42
2018-08-03T22:05:58.745Z,99997.42
2018-08-03T22:08:27.841Z,99998.25
2018-08-03T22:10:57.021Z,100002.85
2018-08-03T22:13:26.020Z,99998.45
2018-08-03T22:15:55.037Z,99991.63
2018-08-03T22:18:24.066Z,100001.42
2018-08-03T22:20:53.080Z,99997.55
2018-08-03T22:23:22.032Z,99997.86
2018-08-03T22:25:50.990Z,100000.29
2018-08-03T22:28:20.247Z,99990.62
2018-08-03T22:30:49.296Z,99998.39
2018-08-03T22:33:18.316Z,99990.10
2018-08-03T22:35:47.283Z,99995.23
2018-08-03T22:38:16.404Z,99989.41
2018-08-03T22:40:45.450Z,99989.37
2018-08-03T22:43:14.537Z,99987.70
2018-08-03T22:45:43.516Z,99990.44
2018-08-03T22:48:12.509Z,99987.57
2018-08-03T22:50:41.538Z,99989.97
2018-08-03T22:53:10.601Z,99990.20
2018-08-03T22:55:39.837Z,99986.41
2018-08-03T22:58:08.905Z,99989.13
2018-08-03T23:00:37.921Z,99988.23
2018-08-03T23:03:07.230Z,99987.09
2018-08-03T23:05:36.178Z,99982.06
2018-08-03T23:08:05.204Z,99979.03
2018-08-03T23:10:34.179Z,99979.03
2018-08-03T23:13:03.245Z,99976.77
2018-08-03T23:15:32.253Z,99980.27
2018-08-03T23:18:01.200Z,99984.09
2018-08-03T23:20:30.282Z,99981.06
2018-08-03T23:22:59.331Z,99978.80
2018-08-03T23:25:28.315Z,99978.66
2018-08-03T23:27:57.400Z,99971.56
2018-08-03T23:30:26.425Z,99971.72
2018-08-03T23:32:55.488Z,99967.02
2018-08-03T23:35:24.451Z,99963.42
2018-08-03T23:37:53.524Z,99969.16
2018-08-03T23:40:22.472Z,99965.96
2018-08-03T23:42:51.475Z,99964.44
2018-08-03T23:45:20.489Z,99962.11
2018-08-03T23:47:49.651Z,99949.00
2018-08-03T23:50:19.382Z,99956.36
2018-08-03T23:52:49.462Z,99955.45
2018-08-03T23:55:18.549Z,99964.97
2018-08-03T23:57:47.556Z,99958.23
